Time;durP1;ratioP1;P1;durP2;ratioP2;P2;SDS_P1;SDS_P2;PMS_P1;PMS_P2;Temp;Humidity;BMP_temperature;BMP_pressure;BME280_temperature;BME280_humidity;BME280_pressure;Samples;Min_cycle;Max_cycle;Signal;HPM_P1;HPM_P2
2022/09/24 00:02:19;;;;;;;4.93;2.23;;;15.40;79.40;;;;;;4971285;28;20750;-77
2022/09/24 00:04:47;;;;;;;4.53;2.30;;;15.30;79.40;;;;;;4974408;28;20704;-76
2022/09/24 00:07:17;;;;;;;5.80;2.17;;;15.30;79.50;;;;;;4972856;28;20218;-77
2022/09/24 00:09:45;;;;;;;6.87;2.07;;;15.20;79.60;;;;;;4971835;28;20218;-75
2022/09/24 00:12:13;;;;;;;7.43;2.13;;;15.20;79.60;;;;;;4968893;28;20233;-76
2022/09/24 00:14:42;;;;;;;4.07;2.13;;;15.20;79.60;;;;;;4970590;28;20198;-75
2022/09/24 00:17:10;;;;;;;3.43;1.80;;;15.20;79.70;;;;;;4972484;28;20285;-76
2022/09/24 00:19:39;;;;;;;3.77;2.00;;;15.10;79.70;;;;;;4973206;28;20248;-77
2022/09/24 00:22:07;;;;;;;3.30;1.50;;;15.10;79.80;;;;;;4971462;28;20307;-76
2022/09/24 00:27:22;;;;;;;2.67;1.73;;;15.10;80.00;;;;;;4975477;28;20190;-76
2022/09/24 00:29:50;;;;;;;2.97;1.73;;;15.00;79.90;;;;;;4969634;28;20222;-75
2022/09/24 00:32:18;;;;;;;4.13;1.90;;;15.00;79.90;;;;;;4971594;28;20225;-75
2022/09/24 00:34:47;;;;;;;4.27;1.90;;;15.00;80.10;;;;;;5001421;28;20220;-76
2022/09/24 00:37:15;;;;;;;5.87;1.97;;;14.90;80.20;;;;;;5011349;28;20200;-76
2022/09/24 00:39:45;;;;;;;2.90;1.93;;;14.90;80.20;;;;;;5010714;28;20267;-76
2022/09/24 00:42:14;;;;;;;5.13;2.00;;;14.90;80.30;;;;;;5011867;28;20598;-76
2022/09/24 00:44:53;;;;;;;5.50;2.23;;;14.90;80.30;;;;;;5007287;28;20299;-76
2022/09/24 00:47:40;;;;;;;4.97;1.70;;;14.90;80.50;;;;;;4997534;28;20552;-76
2022/09/24 00:50:16;;;;;;;2.73;1.70;;;14.80;80.30;;;;;;5010998;28;20243;-75
2022/09/24 00:52:49;;;;;;;8.10;2.47;;;14.80;80.40;;;;;;5008665;28;20191;-76
2022/09/24 00:55:22;;;;;;;2.17;1.63;;;14.80;80.40;;;;;;5010718;28;20196;-75
2022/09/24 00:57:55;;;;;;;4.77;1.90;;;14.80;80.50;;;;;;5007090;28;20297;-76
2022/09/24 01:00:23;;;;;;;4.17;1.93;;;14.70;80.50;;;;;;5009274;28;20193;-76
2022/09/24 01:02:56;;;;;;;6.70;2.10;;;14.70;80.50;;;;;;5009506;28;20220;-75
2022/09/24 01:05:24;;;;;;;4.37;2.27;;;14.70;80.60;;;;;;5008108;28;20192;-75
2022/09/24 01:07:53;;;;;;;5.63;2.50;;;14.70;80.60;;;;;;5012969;28;20212;-76
2022/09/24 01:10:49;;;;;;;4.87;2.40;;;14.70;80.70;;;;;;5011732;28;20224;-75
2022/09/24 01:13:39;;;;;;;4.50;2.40;;;14.70;80.80;;;;;;5003472;28;20197;-75
2022/09/24 01:16:33;;;;;;;4.27;2.33;;;14.60;80.80;;;;;;5006595;28;20197;-76
2022/09/24 01:19:13;;;;;;;5.67;2.80;;;14.60;80.80;;;;;;5006177;28;20200;-77
2022/09/24 01:21:46;;;;;;;7.60;2.80;;;14.60;80.90;;;;;;5011080;28;20212;-76
2022/09/24 01:24:27;;;;;;;4.10;2.63;;;14.60;80.90;;;;;;5010368;28;20247;-76
2022/09/24 01:27:02;;;;;;;6.37;2.60;;;14.60;80.90;;;;;;5008599;28;20653;-76
2022/09/24 01:29:44;;;;;;;6.80;3.17;;;14.60;81.10;;;;;;5009459;28;20223;-76
2022/09/24 01:32:18;;;;;;;6.77;2.93;;;14.50;81.10;;;;;;5008014;28;20224;-76
2022/09/24 01:34:52;;;;;;;6.17;3.33;;;14.50;81.10;;;;;;5010118;28;20765;-75
2022/09/24 01:37:24;;;;;;;4.60;2.33;;;14.50;81.10;;;;;;5011537;28;20639;-76
2022/09/24 01:39:54;;;;;;;5.77;2.77;;;14.50;81.00;;;;;;5012146;28;20228;-76
2022/09/24 01:42:23;;;;;;;4.90;2.53;;;14.40;80.90;;;;;;5013233;28;20316;-76
2022/09/24 01:44:54;;;;;;;4.73;2.73;;;14.50;81.80;;;;;;5006171;28;20223;-76
2022/09/24 01:47:31;;;;;;;4.90;2.73;;;14.40;81.00;;;;;;5011185;28;20634;-76
2022/09/24 01:50:02;;;;;;;5.27;2.33;;;14.40;81.10;;;;;;5007986;28;20235;-75
2022/09/24 01:52:37;;;;;;;5.23;2.67;;;14.40;81.20;;;;;;5010967;28;20609;-76
2022/09/24 01:55:08;;;;;;;5.57;2.77;;;14.40;81.20;;;;;;5008999;28;20251;-75
2022/09/24 01:57:41;;;;;;;6.37;2.60;;;14.40;81.30;;;;;;5010090;28;20192;-76
2022/09/24 02:00:13;;;;;;;5.27;2.97;;;14.30;81.30;;;;;;5007864;28;20586;-75
2022/09/24 02:02:46;;;;;;;7.10;3.20;;;14.30;81.40;;;;;;5005499;28;20554;-76
2022/09/24 02:05:19;;;;;;;9.30;3.50;;;14.20;81.30;;;;;;5009881;28;20220;-75
2022/09/24 02:07:56;;;;;;;6.07;3.00;;;14.20;81.40;;;;;;5001219;28;20196;-76
2022/09/24 02:10:45;;;;;;;6.00;3.40;;;14.20;81.50;;;;;;5010987;28;20246;-77
2022/09/24 02:13:17;;;;;;;8.63;2.90;;;14.20;81.60;;;;;;4998937;28;20576;-76
2022/09/24 02:15:52;;;;;;;4.23;2.83;;;14.10;81.40;;;;;;5007090;28;20226;-76
2022/09/24 02:18:25;;;;;;;8.00;3.40;;;14.10;81.60;;;;;;5001986;28;20271;-76
2022/09/24 02:20:54;;;;;;;6.07;3.03;;;14.10;81.60;;;;;;5007240;28;20224;-77
2022/09/24 02:23:26;;;;;;;6.53;3.80;;;14.10;81.70;;;;;;5005366;28;20560;-76
2022/09/24 02:25:57;;;;;;;5.37;3.43;;;14.10;82.50;;;;;;5013626;28;20618;-76
2022/09/24 02:28:26;;;;;;;5.50;2.90;;;14.00;82.30;;;;;;5003090;28;20280;-76
2022/09/24 02:31:02;;;;;;;4.93;2.87;;;14.00;82.30;;;;;;5010700;28;20196;-78
2022/09/24 02:36:18;;;;;;;4.90;2.63;;;14.00;82.20;;;;;;5014228;28;20246;-76
2022/09/24 02:38:47;;;;;;;7.80;3.30;;;14.00;82.20;;;;;;5007835;28;20230;-76
2022/09/24 02:41:15;;;;;;;5.20;2.80;;;14.00;82.20;;;;;;5011871;28;20220;-77
2022/09/24 02:43:43;;;;;;;6.03;2.70;;;14.00;82.10;;;;;;5003437;28;20712;-76
2022/09/24 02:46:13;;;;;;;6.13;3.23;;;14.00;82.10;;;;;;5011634;28;20223;-76
2022/09/24 02:48:41;;;;;;;7.40;3.00;;;14.00;82.00;;;;;;5013098;28;20292;-76
2022/09/24 02:51:10;;;;;;;5.80;2.80;;;14.00;82.00;;;;;;5008799;28;20200;-76
2022/09/24 02:53:38;;;;;;;5.13;3.23;;;13.90;81.90;;;;;;4999412;28;20240;-76
2022/09/24 02:56:07;;;;;;;6.03;2.90;;;13.90;81.90;;;;;;5007084;28;20228;-76
2022/09/24 02:58:36;;;;;;;4.63;2.40;;;13.90;81.90;;;;;;4998271;28;20193;-77
2022/09/24 03:01:05;;;;;;;4.47;2.70;;;13.90;81.90;;;;;;5012032;28;20200;-76
2022/09/24 03:03:34;;;;;;;4.27;2.70;;;13.90;81.90;;;;;;5010941;28;20232;-76
2022/09/24 03:06:03;;;;;;;5.17;2.80;;;13.90;81.80;;;;;;5008520;28;20250;-77
2022/09/24 03:08:31;;;;;;;4.30;2.57;;;13.80;81.70;;;;;;5008690;28;20232;-77
2022/09/24 03:11:00;;;;;;;5.03;2.77;;;13.80;81.60;;;;;;5007668;28;20203;-76
2022/09/24 03:13:28;;;;;;;5.93;2.43;;;13.80;81.70;;;;;;4999765;28;21015;-77
2022/09/24 03:15:56;;;;;;;4.20;2.50;;;13.80;81.70;;;;;;5000773;28;20219;-76
2022/09/24 03:18:25;;;;;;;5.07;2.57;;;13.80;81.70;;;;;;5005348;28;20197;-77
2022/09/24 03:20:58;;;;;;;6.03;2.60;;;13.80;81.70;;;;;;5002899;28;20279;-78
2022/09/24 03:23:27;;;;;;;4.33;2.90;;;13.70;81.70;;;;;;4997155;28;20240;-76
2022/09/24 03:25:56;;;;;;;4.77;2.60;;;13.70;81.60;;;;;;4998945;28;20213;-76
2022/09/24 03:28:26;;;;;;;5.23;3.07;;;13.70;81.60;;;;;;5000268;28;20192;-76
2022/09/24 03:30:59;;;;;;;6.23;3.07;;;13.70;81.60;;;;;;4992693;28;20642;-76
2022/09/24 03:33:30;;;;;;;9.90;3.10;;;13.60;81.50;;;;;;5010780;28;20223;-76
2022/09/24 03:36:01;;;;;;;13.30;3.03;;;13.60;81.50;;;;;;5009730;28;20246;-76
2022/09/24 03:38:30;;;;;;;7.57;3.07;;;13.60;81.50;;;;;;5003296;28;20654;-76
2022/09/24 03:40:59;;;;;;;8.47;2.97;;;13.60;81.60;;;;;;5006733;28;20231;-77
2022/09/24 03:43:28;;;;;;;6.80;2.80;;;13.60;81.50;;;;;;4998758;28;20247;-76
2022/09/24 03:45:56;;;;;;;6.67;2.90;;;13.50;81.40;;;;;;5006055;28;20603;-77
2022/09/24 03:48:26;;;;;;;6.57;3.00;;;13.50;81.40;;;;;;5012322;28;20225;-76
2022/09/24 03:50:54;;;;;;;5.87;2.57;;;13.50;81.40;;;;;;5011034;28;20208;-76
2022/09/24 03:53:24;;;;;;;5.77;2.90;;;13.50;81.30;;;;;;5010210;28;20731;-76
2022/09/24 03:55:55;;;;;;;6.93;2.67;;;13.40;81.20;;;;;;5013295;28;20254;-76
2022/09/24 03:58:24;;;;;;;4.70;2.70;;;13.40;81.20;;;;;;5004392;28;20232;-76
2022/09/24 04:00:53;;;;;;;5.73;2.63;;;13.40;81.20;;;;;;5017385;28;20318;-77
2022/09/24 04:03:22;;;;;;;8.03;2.93;;;13.30;81.20;;;;;;5002151;28;20204;-76
2022/09/24 04:05:51;;;;;;;6.33;2.60;;;13.30;81.10;;;;;;4997497;28;20221;-76
2022/09/24 04:08:21;;;;;;;3.63;2.23;;;13.30;81.10;;;;;;5004695;28;20231;-76
2022/09/24 04:10:51;;;;;;;5.00;2.60;;;13.30;81.10;;;;;;5007051;28;20291;-76
2022/09/24 04:13:20;;;;;;;4.70;2.67;;;13.30;81.10;;;;;;5008765;28;20196;-76
2022/09/24 04:15:49;;;;;;;7.17;2.57;;;13.30;81.10;;;;;;4998054;28;20232;-77
2022/09/24 04:18:18;;;;;;;7.13;3.17;;;13.20;81.00;;;;;;5010451;28;20192;-76
2022/09/24 04:20:46;;;;;;;8.37;3.33;;;13.20;81.00;;;;;;5008805;28;20665;-76
2022/09/24 04:23:15;;;;;;;6.13;2.73;;;13.10;81.00;;;;;;5003935;28;20195;-76
2022/09/24 04:25:44;;;;;;;4.87;2.60;;;13.10;81.10;;;;;;4996499;28;20248;-76
2022/09/24 04:28:13;;;;;;;4.07;2.67;;;13.10;81.10;;;;;;5001649;28;20696;-76
2022/09/24 04:30:42;;;;;;;4.80;2.40;;;13.10;81.20;;;;;;5018699;28;20625;-76
2022/09/24 04:33:10;;;;;;;8.53;2.30;;;13.10;81.10;;;;;;5005149;28;20693;-76
2022/09/24 04:35:39;;;;;;;6.17;2.40;;;13.10;81.20;;;;;;5012883;28;20538;-79
2022/09/24 04:38:07;;;;;;;5.60;2.80;;;13.10;81.20;;;;;;5001791;28;20621;-76
2022/09/24 04:40:35;;;;;;;7.67;2.83;;;13.10;81.20;;;;;;5006536;28;20275;-76
2022/09/24 04:43:04;;;;;;;4.57;2.70;;;13.10;81.20;;;;;;5005178;28;20283;-76
2022/09/24 04:45:34;;;;;;;4.37;2.83;;;13.10;81.30;;;;;;5001363;28;20696;-76
2022/09/24 04:48:03;;;;;;;6.23;2.73;;;13.10;81.30;;;;;;5006785;28;20243;-76
2022/09/24 04:50:33;;;;;;;4.23;2.60;;;13.10;81.30;;;;;;5010847;28;20283;-76
2022/09/24 04:53:02;;;;;;;5.53;2.87;;;13.10;81.50;;;;;;5004019;28;20236;-76
2022/09/24 04:55:30;;;;;;;6.50;2.93;;;13.10;81.40;;;;;;5006049;28;20633;-76
2022/09/24 04:57:59;;;;;;;4.57;2.43;;;13.10;81.50;;;;;;5006047;28;20262;-76
2022/09/24 05:00:32;;;;;;;5.97;3.40;;;13.10;81.40;;;;;;5006694;28;20494;-75
2022/09/24 05:03:03;;;;;;;5.30;2.83;;;13.20;82.10;;;;;;5008992;28;20189;-76
2022/09/24 05:05:32;;;;;;;5.03;2.80;;;13.10;81.90;;;;;;5013298;28;20220;-76
2022/09/24 05:08:00;;;;;;;7.63;3.13;;;13.20;81.90;;;;;;5003949;28;20271;-76
2022/09/24 05:10:30;;;;;;;9.33;3.10;;;13.20;81.90;;;;;;5003863;28;20715;-76
2022/09/24 05:12:58;;;;;;;6.27;3.07;;;13.20;81.90;;;;;;5005194;28;20210;-77
2022/09/24 05:15:26;;;;;;;7.33;2.70;;;13.20;81.90;;;;;;5006197;28;20196;-76
2022/09/24 05:17:55;;;;;;;6.20;2.90;;;13.30;81.90;;;;;;5000222;28;20200;-76
2022/09/24 05:20:25;;;;;;;6.77;3.10;;;13.30;82.00;;;;;;5008431;28;20290;-76
2022/09/24 05:22:54;;;;;;;6.97;3.00;;;13.30;82.10;;;;;;5005708;28;20243;-77
2022/09/24 05:25:22;;;;;;;6.90;3.30;;;13.30;82.10;;;;;;5007832;28;20216;-77
2022/09/24 05:27:52;;;;;;;5.73;2.87;;;13.40;82.20;;;;;;5007902;28;20255;-77
2022/09/24 05:30:22;;;;;;;5.80;2.97;;;13.40;82.30;;;;;;5008989;28;20641;-76
2022/09/24 05:32:51;;;;;;;6.50;2.60;;;13.40;82.20;;;;;;5011356;28;20214;-76
2022/09/24 05:35:21;;;;;;;7.20;2.77;;;13.50;82.30;;;;;;5009342;28;20193;-76
2022/09/24 05:37:52;;;;;;;6.03;3.00;;;13.50;82.20;;;;;;5015845;28;20331;-76
2022/09/24 05:43:06;;;;;;;6.60;3.30;;;13.60;82.10;;;;;;5008902;28;20263;-76
2022/09/24 05:45:35;;;;;;;6.23;2.50;;;13.70;82.00;;;;;;5011218;28;20224;-76
2022/09/24 05:48:04;;;;;;;9.60;3.40;;;13.70;81.90;;;;;;5008309;28;20262;-76
2022/09/24 05:50:33;;;;;;;7.67;3.50;;;13.80;82.00;;;;;;5009149;28;20227;-76
2022/09/24 05:53:05;;;;;;;14.53;3.77;;;13.80;81.90;;;;;;5009613;28;20231;-76
2022/09/24 05:55:33;;;;;;;9.67;3.43;;;13.90;82.00;;;;;;4974985;28;20705;-76
2022/09/24 05:58:06;;;;;;;10.98;3.95;;;13.90;82.00;;;;;;5004008;28;20544;-76
2022/09/24 06:00:35;;;;;;;7.20;3.33;;;14.00;82.50;;;;;;5013518;28;20254;-76
2022/09/24 06:03:06;;;;;;;7.03;3.53;;;14.10;82.50;;;;;;5011449;28;20723;-76
2022/09/24 06:05:35;;;;;;;6.57;3.73;;;14.20;82.40;;;;;;5013383;28;20558;-76
2022/09/24 06:08:06;;;;;;;5.93;3.03;;;14.30;82.30;;;;;;5010478;28;20668;-76
2022/09/24 06:10:36;;;;;;;8.83;3.33;;;14.40;82.20;;;;;;5012747;28;20188;-76
2022/09/24 06:13:04;;;;;;;11.93;3.60;;;14.50;82.10;;;;;;5015261;28;20657;-76
2022/09/24 06:15:33;;;;;;;7.50;3.60;;;14.60;81.90;;;;;;5013366;28;20258;-76
2022/09/24 06:18:02;;;;;;;8.50;3.80;;;14.60;81.80;;;;;;5004415;28;20250;-76
2022/09/24 06:20:30;;;;;;;6.57;3.03;;;14.70;81.80;;;;;;5009856;28;20266;-76
2022/09/24 06:22:59;;;;;;;7.67;3.57;;;14.70;81.60;;;;;;5006815;28;20506;-74
2022/09/24 06:25:29;;;;;;;8.70;3.80;;;14.80;81.60;;;;;;5010588;28;20491;-76
2022/09/24 06:28:00;;;;;;;6.03;3.87;;;14.90;82.10;;;;;;5014241;28;20266;-75
2022/09/24 06:30:29;;;;;;;7.33;3.40;;;15.00;81.90;;;;;;5012282;28;20199;-75
2022/09/24 06:33:04;;;;;;;6.70;3.30;;;15.00;81.20;;;;;;5008015;28;20189;-76
2022/09/24 06:35:34;;;;;;;7.60;3.40;;;15.10;81.00;;;;;;5008705;28;20196;-76
2022/09/24 06:38:02;;;;;;;5.80;3.30;;;15.10;80.90;;;;;;5008049;28;20200;-76
2022/09/24 06:40:32;;;;;;;6.90;3.47;;;15.20;80.80;;;;;;5005486;28;20231;-76
2022/09/24 06:43:05;;;;;;;7.13;3.10;;;15.30;80.80;;;;;;5005021;28;20197;-76
2022/09/24 06:45:33;;;;;;;6.37;3.10;;;15.30;80.20;;;;;;5010313;28;20216;-76
2022/09/24 06:48:04;;;;;;;9.57;3.20;;;15.40;79.80;;;;;;5007316;28;20228;-75
2022/09/24 06:50:33;;;;;;;10.80;3.23;;;15.40;79.40;;;;;;5009845;28;20239;-76
2022/09/24 06:53:05;;;;;;;4.07;2.40;;;15.50;79.60;;;;;;5011773;28;20246;-77
2022/09/24 06:55:38;;;;;;;6.40;3.27;;;15.50;79.30;;;;;;5011213;28;20212;-77
2022/09/24 06:58:08;;;;;;;6.77;2.70;;;15.60;78.90;;;;;;5009629;28;20864;-76
2022/09/24 07:00:38;;;;;;;4.93;2.50;;;15.70;78.70;;;;;;5010907;28;20234;-76
2022/09/24 07:03:07;;;;;;;4.07;2.20;;;15.70;78.40;;;;;;5010199;28;20977;-76
2022/09/24 07:05:35;;;;;;;6.07;3.10;;;15.90;78.40;;;;;;5007078;28;20220;-75
2022/09/24 07:08:10;;;;;;;5.67;2.63;;;15.90;78.10;;;;;;5006634;28;20641;-75
2022/09/24 07:10:42;;;;;;;5.47;2.80;;;16.00;77.90;;;;;;5010161;28;20243;-76
2022/09/24 07:13:12;;;;;;;5.80;3.23;;;16.10;77.50;;;;;;4998319;28;20231;-75
2022/09/24 07:15:40;;;;;;;5.60;2.33;;;16.10;77.30;;;;;;5010458;28;20196;-74
2022/09/24 07:18:09;;;;;;;4.00;2.27;;;16.20;77.20;;;;;;5009070;28;20200;-73
2022/09/24 07:20:37;;;;;;;6.10;3.00;;;16.30;76.90;;;;;;5011599;28;20227;-76
2022/09/24 07:23:07;;;;;;;8.80;3.33;;;16.40;77.10;;;;;;5005903;28;20200;-75
2022/09/24 07:25:36;;;;;;;7.30;3.30;;;16.40;77.10;;;;;;5008754;28;20221;-75
2022/09/24 07:28:08;;;;;;;5.43;3.37;;;16.40;76.70;;;;;;5010890;28;20208;-75
2022/09/24 07:30:37;;;;;;;5.90;2.60;;;16.50;76.60;;;;;;5011964;28;20238;-76
2022/09/24 07:33:06;;;;;;;4.47;2.20;;;16.50;76.40;;;;;;5007750;28;20192;-75
2022/09/24 07:35:37;;;;;;;4.83;2.27;;;16.50;75.70;;;;;;5007468;28;20197;-76
2022/09/24 07:38:07;;;;;;;3.50;1.90;;;16.60;74.60;;;;;;5005345;28;20228;-75
2022/09/24 07:40:35;;;;;;;4.13;2.17;;;16.60;74.00;;;;;;5007730;28;20196;-75
2022/09/24 07:43:12;;;;;;;6.57;2.47;;;16.70;74.30;;;;;;5011215;28;20188;-76
2022/09/24 07:45:42;;;;;;;3.90;2.10;;;16.70;74.30;;;;;;5007467;28;20192;-75
2022/09/24 07:48:11;;;;;;;7.33;2.50;;;16.80;74.50;;;;;;5010077;28;20245;-75
2022/09/24 07:50:41;;;;;;;3.97;2.10;;;16.90;74.50;;;;;;5011603;28;20203;-76
2022/09/24 07:53:11;;;;;;;4.33;2.33;;;16.90;74.00;;;;;;5010435;28;20596;-76
2022/09/24 07:55:39;;;;;;;7.60;2.83;;;17.00;73.70;;;;;;5004662;28;20208;-75
2022/09/24 07:58:12;;;;;;;4.30;2.20;;;17.00;74.00;;;;;;5009373;28;20202;-76
2022/09/24 08:00:41;;;;;;;5.77;3.20;;;17.10;74.00;;;;;;5010849;28;20204;-76
2022/09/24 08:03:09;;;;;;;5.43;2.90;;;17.20;74.10;;;;;;5009625;28;20192;-77
2022/09/24 08:05:44;;;;;;;10.67;3.63;;;17.30;73.70;;;;;;5003394;28;20669;-76
2022/09/24 08:08:13;;;;;;;9.73;2.80;;;17.30;73.20;;;;;;5011896;28;20196;-75
2022/09/24 08:10:41;;;;;;;7.27;2.67;;;17.40;72.90;;;;;;5011246;28;20247;-75
2022/09/24 08:13:11;;;;;;;4.27;2.30;;;17.40;73.80;;;;;;5005248;28;20659;-75
2022/09/24 08:15:56;;;;;;;7.80;2.57;;;17.50;72.20;;;;;;5005947;28;20204;-77
2022/09/24 08:18:24;;;;;;;6.13;2.23;;;17.60;71.30;;;;;;5003703;28;20188;-77
2022/09/24 08:20:53;;;;;;;6.03;1.83;;;17.60;71.50;;;;;;5012656;28;20192;-76
2022/09/24 08:23:21;;;;;;;4.17;2.00;;;17.70;71.40;;;;;;5011017;28;20255;-76
2022/09/24 08:25:50;;;;;;;4.37;1.90;;;17.70;70.30;;;;;;5010586;28;20247;-76
2022/09/24 08:28:19;;;;;;;4.33;2.00;;;17.80;69.80;;;;;;5013251;28;20282;-75
2022/09/24 08:30:47;;;;;;;4.13;1.60;;;17.80;68.50;;;;;;5011197;28;20250;-75
2022/09/24 08:33:16;;;;;;;5.83;1.50;;;17.80;66.90;;;;;;5012646;28;20717;-75
2022/09/24 08:35:44;;;;;;;3.13;1.40;;;17.80;66.90;;;;;;5009626;28;20192;-76
2022/09/24 08:38:12;;;;;;;1.77;1.10;;;17.80;66.70;;;;;;5009857;28;20188;-76
2022/09/24 08:40:46;;;;;;;4.63;1.30;;;17.90;65.80;;;;;;5013122;28;20184;-78
2022/09/24 08:43:25;;;;;;;4.73;1.50;;;17.90;65.70;;;;;;5008260;28;20222;-75
2022/09/24 08:48:50;;;;;;;3.07;1.50;;;18.00;65.00;;;;;;5000031;28;20696;-75
2022/09/24 08:51:21;;;;;;;2.23;1.43;;;18.10;65.00;;;;;;5008590;28;20195;-76
2022/09/24 08:53:53;;;;;;;2.90;1.50;;;18.10;64.40;;;;;;5008889;28;20254;-75
2022/09/24 08:56:25;;;;;;;2.90;1.40;;;18.20;65.40;;;;;;5011530;28;20219;-75
2022/09/24 08:58:59;;;;;;;2.60;1.53;;;18.20;65.90;;;;;;4999952;28;20192;-75
2022/09/24 09:01:35;;;;;;;1.97;1.40;;;18.30;65.70;;;;;;5007868;28;20599;-76
2022/09/24 09:04:17;;;;;;;3.27;1.73;;;18.30;64.40;;;;;;5009660;28;20196;-77
2022/09/24 09:07:06;;;;;;;3.27;1.27;;;18.40;65.00;;;;;;5008954;28;20244;-76
2022/09/24 09:09:44;;;;;;;2.60;1.50;;;18.40;64.30;;;;;;5011386;28;20220;-74
2022/09/24 09:12:17;;;;;;;1.93;1.10;;;18.50;63.90;;;;;;5009793;28;20196;-76
2022/09/24 09:14:53;;;;;;;1.83;0.97;;;18.50;62.50;;;;;;5000018;28;20291;-76
2022/09/24 09:17:31;;;;;;;4.53;1.00;;;18.60;61.80;;;;;;5006000;28;20192;-76
2022/09/24 09:20:03;;;;;;;1.73;1.20;;;18.60;60.90;;;;;;5005010;28;20235;-75
2022/09/24 09:22:35;;;;;;;2.43;1.03;;;18.70;61.40;;;;;;5005958;28;20240;-75
2022/09/24 09:25:15;;;;;;;1.90;1.10;;;18.80;61.10;;;;;;5012323;28;20230;-75
2022/09/24 09:27:43;;;;;;;2.80;1.20;;;18.80;60.00;;;;;;5006586;28;20212;-76
2022/09/24 09:30:21;;;;;;;3.10;1.20;;;18.90;60.20;;;;;;5004881;28;20193;-75
2022/09/24 09:33:09;;;;;;;2.33;1.20;;;18.90;60.20;;;;;;5005858;28;20207;-75
2022/09/24 09:35:48;;;;;;;2.13;1.17;;;19.00;60.40;;;;;;5009538;28;20239;-75
2022/09/24 09:38:24;;;;;;;3.23;1.33;;;19.10;60.70;;;;;;4996954;28;20195;-76
2022/09/24 09:41:03;;;;;;;2.70;1.10;;;19.20;61.20;;;;;;5005283;28;20192;-76
2022/09/24 09:43:32;;;;;;;2.17;1.30;;;19.30;60.10;;;;;;5011059;28;20216;-75
2022/09/24 09:46:12;;;;;;;2.53;1.10;;;19.40;59.90;;;;;;5006913;28;20873;-75
2022/09/24 09:48:46;;;;;;;2.38;1.20;;;19.40;58.40;;;;;;5008540;28;20208;-76
2022/09/24 09:51:19;;;;;;;3.25;1.20;;;19.50;58.70;;;;;;4994574;28;20433;-75
2022/09/24 09:53:55;;;;;;;2.58;1.65;;;19.60;58.30;;;;;;5002535;28;20199;-76
2022/09/24 09:56:25;;;;;;;1.70;1.00;;;19.60;58.20;;;;;;5012119;28;20231;-74
2022/09/24 09:59:03;;;;;;;1.80;1.00;;;19.60;57.30;;;;;;5009978;28;20196;-76
2022/09/24 10:01:34;;;;;;;1.90;1.00;;;19.60;56.20;;;;;;5010773;28;20188;-75
2022/09/24 10:04:04;;;;;;;1.95;1.27;;;19.70;55.60;;;;;;5008494;28;20238;-74
2022/09/24 10:06:35;;;;;;;1.67;1.07;;;19.70;56.60;;;;;;5006490;28;20223;-75
2022/09/24 10:09:12;;;;;;;3.42;1.65;;;19.80;56.70;;;;;;5008082;28;20271;-74
2022/09/24 10:11:41;;;;;;;7.00;2.42;;;19.90;55.50;;;;;;5008988;28;20192;-76
2022/09/24 10:14:12;;;;;;;2.22;1.20;;;19.90;55.60;;;;;;5009336;28;20197;-76
2022/09/24 10:16:44;;;;;;;3.83;1.17;;;20.00;55.10;;;;;;5008952;28;20197;-78
2022/09/24 10:19:19;;;;;;;2.53;1.33;;;20.00;53.70;;;;;;5006828;28;20188;-76
2022/09/24 10:21:47;;;;;;;2.03;1.20;;;20.10;53.50;;;;;;5001738;28;20184;-75
2022/09/24 10:24:19;;;;;;;5.28;1.40;;;20.10;52.80;;;;;;5012343;28;20193;-75
2022/09/24 10:26:48;;;;;;;2.92;0.95;;;20.00;52.10;;;;;;5012761;28;20192;-75
2022/09/24 10:32:16;;;;;;;2.70;1.07;;;20.00;51.90;;;;;;4996906;28;20193;-76
2022/09/24 10:34:56;;;;;;;1.45;0.80;;;20.00;52.00;;;;;;5008309;28;20278;-76
2022/09/24 10:37:27;;;;;;;1.90;1.08;;;20.10;52.00;;;;;;5008992;28;20192;-76
2022/09/24 10:39:59;;;;;;;4.68;1.00;;;20.10;52.50;;;;;;5010504;28;20193;-77
2022/09/24 10:42:29;;;;;;;1.60;1.00;;;20.20;52.30;;;;;;5009057;28;20856;-75
2022/09/24 10:45:01;;;;;;;3.22;1.08;;;20.30;52.00;;;;;;5012237;28;20203;-76
2022/09/24 10:47:38;;;;;;;1.65;0.75;;;20.30;52.60;;;;;;5012543;28;20243;-75
2022/09/24 10:50:25;;;;;;;1.60;1.05;;;20.40;51.90;;;;;;5002329;28;21623;-75
2022/09/24 10:52:57;;;;;;;1.83;1.10;;;20.40;52.30;;;;;;5006424;28;20189;-75
2022/09/24 10:55:56;;;;;;;1.60;0.90;;;20.50;51.80;;;;;;5010037;28;20201;-75
2022/09/24 10:58:46;;;;;;;1.55;0.82;;;20.60;50.80;;;;;;4995254;28;20212;-75
2022/09/24 11:01:19;;;;;;;3.75;1.48;;;20.60;50.70;;;;;;5006448;28;20721;-76
2022/09/24 11:04:09;;;;;;;4.00;0.70;;;20.60;50.80;;;;;;5003601;28;20220;-76
2022/09/24 11:06:46;;;;;;;2.67;1.65;;;20.70;50.90;;;;;;5010705;28;20197;-75
2022/09/24 11:09:28;;;;;;;5.03;2.50;;;20.70;50.30;;;;;;5011914;28;20739;-75
2022/09/24 11:12:05;;;;;;;5.10;1.85;;;20.80;49.60;;;;;;5009348;28;20282;-76
2022/09/24 11:14:52;;;;;;;1.65;0.90;;;20.80;50.20;;;;;;5011027;28;20228;-77
2022/09/24 11:17:33;;;;;;;1.27;0.90;;;20.80;49.40;;;;;;5008525;28;20196;-76
2022/09/24 11:20:23;;;;;;;5.15;0.80;;;20.90;49.10;;;;;;5010175;28;20192;-76
2022/09/24 11:23:28;;;;;;;3.55;1.10;;;20.90;49.00;;;;;;4992406;28;20185;-76
2022/09/24 11:26:02;;;;;;;1.98;0.90;;;20.90;49.00;;;;;;5000676;28;20192;-76
2022/09/24 11:28:51;;;;;;;4.43;1.23;;;21.00;49.70;;;;;;5010920;28;20208;-76
2022/09/24 11:31:27;;;;;;;4.93;1.95;;;21.10;50.30;;;;;;5006468;28;20192;-76
2022/09/24 11:34:15;;;;;;;2.72;1.00;;;21.10;50.10;;;;;;5006712;28;20653;-77
2022/09/24 11:36:57;;;;;;;1.65;1.00;;;21.20;50.00;;;;;;5008546;28;20220;-76
2022/09/24 11:39:42;;;;;;;1.73;1.15;;;21.30;49.70;;;;;;5011260;28;20181;-75
2022/09/24 11:42:22;;;;;;;3.05;0.90;;;21.30;48.60;;;;;;5006584;28;20226;-76
2022/09/24 11:45:13;;;;;;;1.42;0.80;;;21.40;48.40;;;;;;5007939;28;20231;-75
2022/09/24 11:47:55;;;;;;;2.78;0.90;;;21.30;47.40;;;;;;5011419;28;20188;-77
2022/09/24 11:50:36;;;;;;;1.42;0.80;;;21.40;47.40;;;;;;5007917;28;20193;-77
2022/09/24 11:53:13;;;;;;;1.58;0.90;;;21.40;47.70;;;;;;5011426;28;20193;-76
2022/09/24 11:55:48;;;;;;;2.63;1.10;;;21.50;48.20;;;;;;5010280;28;20572;-76
2022/09/24 11:58:20;;;;;;;2.00;1.20;;;21.50;48.00;;;;;;5013812;28;20847;-77
2022/09/24 12:00:53;;;;;;;4.57;1.58;;;21.50;47.50;;;;;;5010176;28;20216;-75
2022/09/24 12:03:25;;;;;;;4.25;1.35;;;21.50;47.60;;;;;;5010235;28;20335;-78
2022/09/24 12:05:59;;;;;;;2.33;0.98;;;21.50;46.70;;;;;;5009738;28;20210;-76
2022/09/24 12:08:37;;;;;;;2.10;1.15;;;21.60;46.80;;;;;;5015210;28;20208;-76
2022/09/24 12:11:12;;;;;;;3.55;1.25;;;21.60;46.50;;;;;;5015075;28;20196;-76
2022/09/24 12:13:46;;;;;;;2.53;1.20;;;21.60;46.80;;;;;;5007633;28;20275;-76
2022/09/24 12:16:18;;;;;;;2.30;1.20;;;21.60;47.20;;;;;;5007556;28;20225;-75
2022/09/24 12:18:54;;;;;;;3.13;1.95;;;21.60;46.90;;;;;;5006912;28;20242;-77
2022/09/24 12:21:26;;;;;;;3.28;1.40;;;21.50;46.60;;;;;;5011302;28;20597;-76
2022/09/24 12:24:02;;;;;;;3.85;1.80;;;21.50;46.40;;;;;;5013901;28;20227;-76
2022/09/24 12:26:31;;;;;;;2.30;1.38;;;21.50;46.60;;;;;;5009367;28;20214;-76
2022/09/24 12:34:49;;;;;;;5.38;1.20;;;21.60;46.60;;;;;;5014158;28;20782;-77
2022/09/24 12:37:23;;;;;;;2.53;1.15;;;21.70;47.10;;;;;;5011548;28;20219;-76
2022/09/24 12:40:00;;;;;;;1.77;1.00;;;21.80;47.30;;;;;;5013624;28;20188;-76
2022/09/24 12:42:34;;;;;;;2.58;1.08;;;21.80;47.30;;;;;;5011746;28;20189;-76
2022/09/24 12:45:05;;;;;;;1.80;1.15;;;21.90;46.90;;;;;;5013319;28;20211;-76
2022/09/24 12:47:45;;;;;;;3.15;1.55;;;21.90;46.60;;;;;;5009859;28;20193;-75
2022/09/24 12:50:21;;;;;;;3.65;1.30;;;22.00;46.80;;;;;;5013156;28;20307;-76
2022/09/24 12:52:49;;;;;;;2.72;1.35;;;21.90;45.00;;;;;;5011184;28;20227;-76
2022/09/24 12:55:22;;;;;;;5.65;1.38;;;22.00;45.70;;;;;;5011970;28;20607;-76
2022/09/24 12:57:53;;;;;;;2.80;1.42;;;22.00;45.90;;;;;;5009747;28;20232;-76
2022/09/24 13:00:40;;;;;;;2.22;1.10;;;22.00;46.00;;;;;;5012465;28;20223;-76
2022/09/24 13:03:33;;;;;;;3.55;1.15;;;22.00;46.60;;;;;;4996654;28;20244;-77
2022/09/24 13:06:02;;;;;;;3.65;1.40;;;22.10;46.30;;;;;;5011162;28;20232;-75
2022/09/24 13:08:37;;;;;;;1.88;1.08;;;22.00;45.90;;;;;;5011811;28;20235;-76
2022/09/24 13:11:29;;;;;;;2.40;1.35;;;22.00;46.00;;;;;;5010608;28;20348;-76
2022/09/24 13:14:01;;;;;;;3.17;1.67;;;22.10;46.40;;;;;;5004516;28;20239;-76
2022/09/24 13:16:31;;;;;;;6.55;2.03;;;22.10;46.20;;;;;;5008327;28;20196;-76
2022/09/24 13:19:01;;;;;;;3.47;1.55;;;22.20;46.50;;;;;;5009844;28;20251;-76
2022/09/24 13:21:31;;;;;;;3.90;1.70;;;22.30;46.00;;;;;;5009816;28;21043;-76
2022/09/24 13:24:10;;;;;;;3.10;1.60;;;22.40;46.30;;;;;;5012193;28;20201;-77
2022/09/24 13:26:40;;;;;;;5.97;1.63;;;22.50;46.50;;;;;;5012654;28;20195;-76
2022/09/24 13:29:24;;;;;;;3.28;1.30;;;22.50;46.30;;;;;;5008714;28;20248;-78
2022/09/24 13:31:59;;;;;;;2.63;1.30;;;22.60;45.80;;;;;;5004236;28;20189;-76
2022/09/24 13:34:30;;;;;;;2.45;1.40;;;22.70;46.00;;;;;;5007553;28;20247;-76